createdAt,value
2019-02-28T00:04:35.044Z,6.98
2019-02-28T00:10:41.009Z,6.86
2019-02-28T00:16:46.888Z,6.85
2019-02-28T00:22:52.748Z,6.84
2019-02-28T00:29:00.413Z,6.85
2019-02-28T00:35:06.463Z,6.87
2019-02-28T00:41:12.661Z,6.83
2019-02-28T00:47:18.355Z,6.86
2019-02-28T00:53:24.115Z,6.85
2019-02-28T00:59:31.720Z,6.89
2019-02-28T01:05:37.524Z,6.87
2019-02-28T01:11:44.785Z,6.84
2019-02-28T01:17:51.448Z,6.78
2019-02-28T01:24:00.648Z,6.76
2019-02-28T01:30:06.698Z,6.78
2019-02-28T01:36:15.510Z,6.76
2019-02-28T01:42:19.944Z,6.78
2019-02-28T01:48:26.621Z,6.77
2019-02-28T01:54:32.319Z,6.79
2019-02-28T02:00:38.188Z,6.93
2019-02-28T02:06:43.897Z,7.07
2019-02-28T02:12:50.030Z,7.16
2019-02-28T02:18:56.225Z,7.21
2019-02-28T02:25:02.847Z,7.24
2019-02-28T02:31:09.377Z,7.16
2019-02-28T02:37:15.307Z,7.07
2019-02-28T02:43:21.848Z,7.04
2019-02-28T02:49:28.496Z,7.01
2019-02-28T02:55:34.242Z,6.96
2019-02-28T03:01:39.948Z,6.86
2019-02-28T03:07:45.956Z,6.79
2019-02-28T03:13:51.859Z,6.76
2019-02-28T03:19:57.791Z,6.75
2019-02-28T03:26:07.008Z,6.70
2019-02-28T03:32:11.444Z,6.68
2019-02-28T03:38:17.189Z,6.67
2019-02-28T03:44:22.973Z,6.65
2019-02-28T03:50:28.698Z,6.67
2019-02-28T03:56:34.372Z,6.64
2019-02-28T04:02:40.197Z,6.63
2019-02-28T04:08:46.288Z,6.63
2019-02-28T04:14:52.027Z,6.62
2019-02-28T04:20:57.830Z,6.57
2019-02-28T04:27:06.822Z,6.55
2019-02-28T04:33:11.095Z,6.55
2019-02-28T04:39:17.043Z,6.58
2019-02-28T04:45:23.283Z,6.61
2019-02-28T04:51:30.399Z,6.61
2019-02-28T04:57:36.090Z,6.63
2019-02-28T05:03:41.892Z,6.63
2019-02-28T05:09:48.255Z,6.62
2019-02-28T05:15:54.790Z,6.59
2019-02-28T05:22:00.544Z,6.53
2019-02-28T05:28:07.467Z,6.52
2019-02-28T05:34:15.951Z,6.50
2019-02-28T05:40:20.967Z,6.49
2019-02-28T05:46:26.927Z,6.46
2019-02-28T05:52:33.706Z,6.43
2019-02-28T05:58:40.365Z,6.47
2019-02-28T06:04:46.258Z,6.54
2019-02-28T06:10:56.041Z,6.56
2019-02-28T06:17:00.399Z,6.62
2019-02-28T06:23:06.317Z,6.69
2019-02-28T06:29:13.541Z,6.68
2019-02-28T06:35:21.354Z,6.57
2019-02-28T06:41:27.373Z,6.48
2019-02-28T06:47:33.276Z,6.46
2019-02-28T06:53:41.131Z,6.48
2019-02-28T06:59:46.889Z,6.57
2019-02-28T07:05:52.834Z,6.68
2019-02-28T07:11:58.636Z,6.78
2019-02-28T07:18:04.497Z,6.84
2019-02-28T07:24:10.551Z,6.87
2019-02-28T07:30:18.595Z,6.90
2019-02-28T07:36:24.544Z,7.01
2019-02-28T07:42:30.338Z,7.13
2019-02-28T07:48:36.273Z,7.28
2019-02-28T07:54:41.978Z,7.46
2019-02-28T08:00:48.518Z,7.66
2019-02-28T08:06:55.664Z,7.80
2019-02-28T08:13:03.056Z,7.94
2019-02-28T08:19:09.063Z,8.07
2019-02-28T08:25:15.206Z,8.24
2019-02-28T08:31:21.859Z,8.37
2019-02-28T08:37:27.697Z,8.52
2019-02-28T08:43:33.420Z,8.64
2019-02-28T08:49:44.678Z,8.83
2019-02-28T08:55:46.886Z,9.00
2019-02-28T09:01:52.883Z,9.10
2019-02-28T09:07:59.068Z,9.30
2019-02-28T09:14:04.812Z,9.49
2019-02-28T09:20:11.777Z,9.70
2019-02-28T09:26:17.579Z,9.86
2019-02-28T09:32:23.285Z,10.03
2019-02-28T09:38:29.399Z,10.23
2019-02-28T09:44:35.616Z,10.42
2019-02-28T09:50:41.541Z,10.65
2019-02-28T09:56:47.353Z,10.84
2019-02-28T10:02:53.742Z,10.94
2019-02-28T10:09:00.050Z,11.07
2019-02-28T10:15:07.482Z,11.25
2019-02-28T10:21:13.626Z,11.43
2019-02-28T10:27:19.433Z,11.64
2019-02-28T10:33:25.322Z,11.86
2019-02-28T10:39:31.063Z,12.10
2019-02-28T10:45:41.230Z,12.30
2019-02-28T10:51:49.535Z,12.42
2019-02-28T10:57:52.617Z,12.58
2019-02-28T11:04:00.209Z,12.78
2019-02-28T11:10:07.096Z,12.94
2019-02-28T11:16:13.211Z,13.04
2019-02-28T11:22:19.739Z,13.25
2019-02-28T11:28:28.252Z,13.45
2019-02-28T11:34:33.118Z,13.69
2019-02-28T11:40:43.388Z,13.88
2019-02-28T11:46:49.675Z,13.92
2019-02-28T11:52:55.624Z,13.92
2019-02-28T11:59:01.658Z,13.96
2019-02-28T12:05:08.093Z,14.01
2019-02-28T12:11:14.151Z,14.08
2019-02-28T12:17:20.057Z,14.15
2019-02-28T12:23:25.850Z,14.29
2019-02-28T12:29:31.881Z,14.40
2019-02-28T12:35:40.461Z,14.56
2019-02-28T12:41:47.899Z,14.60
2019-02-28T12:47:53.748Z,14.59
2019-02-28T12:53:59.955Z,14.59
2019-02-28T13:00:08.106Z,14.54
2019-02-28T13:06:14.101Z,14.46
2019-02-28T13:12:19.812Z,14.49
2019-02-28T13:18:25.726Z,14.56
2019-02-28T13:24:31.488Z,14.72
2019-02-28T13:30:39.982Z,14.86
2019-02-28T13:36:45.643Z,14.89
2019-02-28T13:42:51.557Z,14.95
2019-02-28T13:48:57.730Z,15.02
2019-02-28T13:55:06.188Z,14.95
2019-02-28T14:01:13.182Z,14.92
2019-02-28T14:07:19.082Z,14.64
2019-02-28T14:13:24.963Z,14.20
2019-02-28T14:19:30.743Z,13.53
2019-02-28T14:25:39.784Z,13.14
2019-02-28T14:31:44.123Z,12.90
2019-02-28T14:37:51.808Z,12.75
2019-02-28T14:43:57.613Z,12.73
2019-02-28T14:50:03.440Z,12.72
2019-02-28T14:56:09.330Z,12.83
2019-02-28T15:02:15.631Z,12.90
2019-02-28T15:08:21.563Z,12.91
2019-02-28T15:14:27.361Z,12.96
2019-02-28T15:20:33.358Z,12.94
2019-02-28T15:26:39.114Z,13.00
2019-02-28T15:32:45.163Z,13.03
2019-02-28T15:38:51.027Z,13.11
2019-02-28T15:44:56.962Z,13.18
2019-02-28T15:51:03.531Z,13.29
2019-02-28T15:57:09.571Z,13.29
2019-02-28T16:03:16.784Z,13.29
2019-02-28T16:09:23.554Z,13.25
2019-02-28T16:15:29.711Z,13.26
2019-02-28T16:21:38.168Z,13.19
2019-02-28T16:27:42.899Z,13.16
2019-02-28T16:33:48.667Z,13.08
2019-02-28T16:39:54.543Z,13.02
2019-02-28T16:46:00.362Z,12.97
2019-02-28T16:52:06.992Z,12.95
2019-02-28T16:58:13.326Z,12.92
2019-02-28T17:04:19.108Z,12.90
2019-02-28T17:10:30.495Z,12.90
2019-02-28T17:16:48.874Z,12.88
2019-02-28T17:22:54.918Z,12.84
2019-02-28T17:29:09.094Z,12.80
2019-02-28T17:35:15.589Z,12.78
2019-02-28T17:41:21.660Z,12.81
2019-02-28T17:48:25.052Z,12.80
2019-02-28T17:55:17.278Z,12.82
2019-02-28T18:01:53.527Z,12.82
2019-02-28T18:08:53.175Z,12.74
2019-02-28T18:15:24.427Z,12.68
2019-02-28T18:22:06.912Z,12.62
2019-02-28T18:29:17.437Z,12.61
2019-02-28T18:35:23.277Z,12.60
2019-02-28T18:41:29.388Z,12.54
2019-02-28T18:47:35.975Z,12.51
2019-02-28T18:53:42.895Z,12.44
2019-02-28T18:59:48.803Z,12.36
2019-02-28T19:05:54.560Z,12.32
2019-02-28T19:12:02.195Z,12.26
2019-02-28T19:18:07.937Z,12.23
2019-02-28T19:24:16.351Z,12.19
2019-02-28T19:30:22.605Z,12.17
2019-02-28T19:36:28.672Z,12.11
2019-02-28T19:42:34.559Z,12.09
2019-02-28T19:48:40.566Z,12.06
2019-02-28T19:54:46.582Z,12.06
2019-02-28T20:00:52.886Z,12.03
2019-02-28T20:06:58.894Z,11.99
2019-02-28T20:13:06.203Z,11.96
2019-02-28T20:19:12.017Z,11.94
2019-02-28T20:25:18.539Z,11.84
2019-02-28T20:31:24.880Z,11.83
2019-02-28T20:37:31.225Z,11.77
2019-02-28T20:43:37.314Z,11.78
2019-02-28T20:49:51.203Z,11.82
2019-02-28T20:55:57.575Z,11.80
2019-02-28T21:02:03.562Z,11.81
2019-02-28T21:08:09.418Z,11.77
2019-02-28T21:14:15.314Z,11.79
2019-02-28T21:20:21.178Z,11.76
2019-02-28T21:26:27.044Z,11.72
2019-02-28T21:32:32.905Z,11.58
2019-02-28T21:38:40.220Z,11.48
2019-02-28T21:44:46.268Z,11.40
2019-02-28T21:50:52.146Z,11.34
2019-02-28T21:56:57.959Z,11.31
2019-02-28T22:03:04.893Z,11.24
2019-02-28T22:09:12.990Z,11.29
2019-02-28T22:15:19.702Z,11.23
2019-02-28T22:21:25.811Z,11.14
2019-02-28T22:27:32.026Z,11.06
2019-02-28T22:33:43.654Z,11.01
2019-02-28T22:39:51.004Z,11.02
2019-02-28T22:45:57.499Z,11.03
2019-02-28T22:52:03.748Z,11.03
2019-02-28T22:58:13.313Z,11.06
2019-02-28T23:04:20.186Z,11.06
2019-02-28T23:10:26.935Z,11.09
2019-02-28T23:16:34.751Z,11.10
2019-02-28T23:22:40.877Z,11.08
2019-02-28T23:29:09.269Z,11.10
2019-02-28T23:35:40.842Z,11.06
2019-02-28T23:41:46.949Z,11.05
2019-02-28T23:47:53.045Z,11.02
2019-02-28T23:53:59.036Z,10.98
